Time;durP1;ratioP1;P1;durP2;ratioP2;P2;SDS_P1;SDS_P2;PMS_P1;PMS_P2;Temp;Humidity;BMP_temperature;BMP_pressure;BME280_temperature;BME280_humidity;BME280_pressure;Samples;Min_cycle;Max_cycle;Signal;HPM_P1;HPM_P2
2022/12/29 00:02:11;;;;;;;8.25;6.53;;;;;;;;;;5046934;28;20056;-83
2022/12/29 00:04:38;;;;;;;6.68;6.03;;;;;;;;;;5029972;28;20122;-83
2022/12/29 00:07:06;;;;;;;6.80;5.65;;;;;;;;;;5027905;28;20052;-82
2022/12/29 00:09:34;;;;;;;8.60;5.55;;;;;;;;;;5022957;28;20046;-82
2022/12/29 00:12:02;;;;;;;7.97;5.65;;;;;;;;;;5023512;28;20515;-82
2022/12/29 00:17:16;;;;;;;10.05;4.75;;;;;;;;;;5021263;28;20065;-82
2022/12/29 00:36:20;;;;;;;8.95;5.38;;;;;;;;;;5020113;28;20049;-83
2022/12/29 00:44:22;;;;;;;6.80;5.57;;;;;;;;;;5009735;28;20057;-82
2022/12/29 00:46:50;;;;;;;9.10;6.57;;;;;;;;;;5039230;28;20053;-82
2022/12/29 00:49:32;;;;;;;6.85;5.07;;;;;;;;;;5023747;28;20038;-83
2022/12/29 00:52:08;;;;;;;7.03;5.97;;;;;;;;;;5029993;28;20048;-83
2022/12/29 00:54:36;;;;;;;7.95;6.03;;;;;;;;;;5034923;28;20053;-83
2022/12/29 00:57:05;;;;;;;5.35;4.85;;;;;;;;;;5040791;28;20057;-82
2022/12/29 00:59:35;;;;;;;7.75;4.63;;;;;;;;;;5038196;28;20049;-82
2022/12/29 01:02:03;;;;;;;7.05;5.75;;;;;;;;;;5030909;28;20052;-83
2022/12/29 01:04:30;;;;;;;6.22;5.38;;;;;;;;;;5028824;28;20531;-82
2022/12/29 01:06:58;;;;;;;6.97;5.60;;;;;;;;;;5044333;28;20075;-83
2022/12/29 01:12:11;;;;;;;7.00;5.35;;;;;;;;;;5030354;28;20133;-82
2022/12/29 01:14:40;;;;;;;6.88;5.55;;;;;;;;;;5027829;28;20049;-82
2022/12/29 01:17:08;;;;;;;5.35;4.72;;;;;;;;;;5026859;28;20140;-82
2022/12/29 01:19:35;;;;;;;8.02;5.78;;;;;;;;;;5044582;28;20045;-83
2022/12/29 01:22:03;;;;;;;6.18;4.38;;;;;;;;;;5026252;28;20041;-83
2022/12/29 01:24:30;;;;;;;7.93;5.65;;;;;;;;;;5016211;28;20420;-83
2022/12/29 01:26:57;;;;;;;8.73;6.03;;;;;;;;;;5035065;28;20493;-82
2022/12/29 01:29:25;;;;;;;7.43;5.63;;;;;;;;;;5013795;28;20046;-83
2022/12/29 01:31:52;;;;;;;9.50;6.25;;;;;;;;;;5026530;28;20042;-83
2022/12/29 01:34:20;;;;;;;11.95;7.38;;;;;;;;;;5028666;28;20136;-84
2022/12/29 01:36:47;;;;;;;13.85;6.70;;;;;;;;;;5029742;28;20049;-83
2022/12/29 01:39:14;;;;;;;7.63;5.25;;;;;;;;;;5017230;28;20096;-83
2022/12/29 01:41:42;;;;;;;7.90;6.32;;;;;;;;;;5030363;28;20053;-83
2022/12/29 01:44:28;;;;;;;6.05;5.28;;;;;;;;;;5022653;28;20050;-83
2022/12/29 01:46:56;;;;;;;6.90;5.43;;;;;;;;;;5032855;28;20429;-82
2022/12/29 01:49:25;;;;;;;7.00;5.57;;;;;;;;;;5023324;28;20041;-83
2022/12/29 01:52:02;;;;;;;10.98;5.75;;;;;;;;;;5023206;28;20516;-83
2022/12/29 01:54:34;;;;;;;7.25;5.22;;;;;;;;;;5041788;28;20525;-82
2022/12/29 01:57:04;;;;;;;9.13;6.32;;;;;;;;;;5026945;28;20052;-82
2022/12/29 01:59:40;;;;;;;8.10;6.07;;;;;;;;;;5031290;28;20112;-82
2022/12/29 02:02:10;;;;;;;10.10;6.53;;;;;;;;;;5030196;28;20441;-82
2022/12/29 02:04:40;;;;;;;10.70;7.03;;;;;;;;;;5038959;28;20068;-83
2022/12/29 02:07:12;;;;;;;10.50;7.00;;;;;;;;;;5019947;28;20049;-83
2022/12/29 02:09:39;;;;;;;9.32;6.47;;;;;;;;;;5013090;28;20041;-83
2022/12/29 02:12:07;;;;;;;7.07;5.80;;;;;;;;;;5021706;28;20045;-83
2022/12/29 02:14:35;;;;;;;8.07;6.15;;;;;;;;;;5040611;28;20110;-83
2022/12/29 02:17:05;;;;;;;8.38;5.57;;;;;;;;;;5020812;28;20049;-83
2022/12/29 02:19:33;;;;;;;6.13;5.53;;;;;;;;;;5015938;28;20095;-84
2022/12/29 02:22:08;;;;;;;6.63;5.50;;;;;;;;;;5016832;28;20157;-83
2022/12/29 02:24:41;;;;;;;5.53;4.50;;;;;;;;;;5019613;28;20103;-83
2022/12/29 02:27:11;;;;;;;5.95;5.28;;;;;;;;;;5024288;28;20053;-83
2022/12/29 02:29:38;;;;;;;6.90;5.57;;;;;;;;;;5041797;28;20545;-83
2022/12/29 02:32:07;;;;;;;8.27;5.20;;;;;;;;;;5038711;28;20060;-83
2022/12/29 02:34:36;;;;;;;5.72;4.97;;;;;;;;;;5046071;28;20067;-83
2022/12/29 02:37:18;;;;;;;5.93;5.15;;;;;;;;;;5040081;28;20045;-83
2022/12/29 02:39:51;;;;;;;5.90;5.18;;;;;;;;;;5032484;28;20053;-83
2022/12/29 02:42:22;;;;;;;7.05;4.72;;;;;;;;;;5036941;28;20041;-84
2022/12/29 02:45:00;;;;;;;6.53;5.10;;;;;;;;;;5028086;28;20552;-83
2022/12/29 02:47:40;;;;;;;7.30;5.20;;;;;;;;;;5044764;28;20045;-83
2022/12/29 02:50:15;;;;;;;6.35;5.28;;;;;;;;;;5042487;28;20049;-83
2022/12/29 02:52:50;;;;;;;7.28;4.40;;;;;;;;;;5019686;28;20041;-83
2022/12/29 02:55:17;;;;;;;5.60;4.32;;;;;;;;;;5009617;28;20547;-83
2022/12/29 02:57:45;;;;;;;4.43;4.00;;;;;;;;;;5019578;28;20041;-83
2022/12/29 03:00:15;;;;;;;5.03;4.05;;;;;;;;;;5032692;28;20387;-83
2022/12/29 03:02:53;;;;;;;6.05;4.90;;;;;;;;;;5030309;28;20088;-83
2022/12/29 03:05:23;;;;;;;7.32;4.93;;;;;;;;;;5018051;28;20053;-83
2022/12/29 03:08:09;;;;;;;6.75;4.47;;;;;;;;;;5021780;28;20049;-83
2022/12/29 03:10:56;;;;;;;4.78;3.95;;;;;;;;;;5017929;28;20494;-83
2022/12/29 03:16:37;;;;;;;5.68;4.38;;;;;;;;;;5028417;28;20052;-83
2022/12/29 03:19:10;;;;;;;5.25;4.25;;;;;;;;;;5028922;28;20060;-83
2022/12/29 03:24:31;;;;;;;7.70;4.63;;;;;;;;;;5024871;28;20042;-82
2022/12/29 03:27:01;;;;;;;8.15;5.20;;;;;;;;;;5019846;28;20054;-82
2022/12/29 03:29:36;;;;;;;4.40;4.00;;;;;;;;;;5039462;28;20072;-82
2022/12/29 03:32:05;;;;;;;7.00;6.18;;;;;;;;;;5047913;28;20061;-82
2022/12/29 03:34:34;;;;;;;4.53;3.80;;;;;;;;;;5025504;28;20088;-82
2022/12/29 03:37:03;;;;;;;7.68;4.50;;;;;;;;;;5045051;28;20133;-83
2022/12/29 03:39:30;;;;;;;9.75;5.13;;;;;;;;;;5026709;28;20124;-83
2022/12/29 03:42:09;;;;;;;5.63;4.63;;;;;;;;;;5032515;28;20072;-83
2022/12/29 03:44:39;;;;;;;5.60;5.13;;;;;;;;;;5046884;28;20057;-83
2022/12/29 03:47:07;;;;;;;8.13;4.70;;;;;;;;;;5024759;28;20135;-83
2022/12/29 03:49:35;;;;;;;6.22;5.10;;;;;;;;;;5028805;28;20452;-83
2022/12/29 03:52:04;;;;;;;7.20;4.93;;;;;;;;;;5033220;28;20145;-83
2022/12/29 03:54:35;;;;;;;8.88;5.50;;;;;;;;;;5020530;28;20052;-84
2022/12/29 03:57:03;;;;;;;8.52;4.57;;;;;;;;;;5020487;28;20049;-83
2022/12/29 03:59:44;;;;;;;9.07;5.40;;;;;;;;;;5023740;28;20062;-83
2022/12/29 04:02:11;;;;;;;8.60;5.20;;;;;;;;;;5026858;28;20045;-83
2022/12/29 04:04:42;;;;;;;9.57;6.35;;;;;;;;;;5046544;22;20617;-83
2022/12/29 04:07:12;;;;;;;9.60;6.47;;;;;;;;;;5035487;28;20045;-83
2022/12/29 04:09:43;;;;;;;13.15;7.07;;;;;;;;;;5036922;28;20045;-83
2022/12/29 04:12:19;;;;;;;13.38;6.10;;;;;;;;;;5049119;28;20108;-83
2022/12/29 04:14:47;;;;;;;13.70;6.75;;;;;;;;;;5017686;28;20060;-84
2022/12/29 04:17:15;;;;;;;11.20;6.20;;;;;;;;;;5034120;28;20080;-83
2022/12/29 04:19:49;;;;;;;10.38;5.82;;;;;;;;;;5033705;28;20041;-83
2022/12/29 04:22:19;;;;;;;15.48;7.18;;;;;;;;;;5025374;28;20042;-83
2022/12/29 04:24:47;;;;;;;15.32;6.65;;;;;;;;;;5026176;28;20046;-82
2022/12/29 04:27:14;;;;;;;16.08;7.63;;;;;;;;;;5008459;28;20478;-83
2022/12/29 04:30:04;;;;;;;12.38;6.55;;;;;;;;;;5018927;28;20048;-83
2022/12/29 04:32:53;;;;;;;12.25;7.78;;;;;;;;;;5024035;28;20037;-84
2022/12/29 04:35:20;;;;;;;15.50;7.30;;;;;;;;;;4989186;28;20107;-82
2022/12/29 04:37:48;;;;;;;17.20;7.50;;;;;;;;;;5019318;28;20054;-83
2022/12/29 04:40:16;;;;;;;15.00;7.28;;;;;;;;;;5025174;28;20451;-82
2022/12/29 04:42:43;;;;;;;16.15;7.55;;;;;;;;;;5008268;28;20553;-83
2022/12/29 04:45:11;;;;;;;12.40;6.97;;;;;;;;;;5012868;28;20507;-83
2022/12/29 04:47:58;;;;;;;12.75;6.20;;;;;;;;;;5014715;28;20087;-83
2022/12/29 04:50:37;;;;;;;11.00;6.80;;;;;;;;;;5027994;28;20084;-83
2022/12/29 04:53:14;;;;;;;16.30;6.88;;;;;;;;;;5023604;28;20042;-84
2022/12/29 04:55:42;;;;;;;12.13;6.28;;;;;;;;;;5016918;28;20424;-83
2022/12/29 04:58:10;;;;;;;11.70;6.20;;;;;;;;;;5019496;28;20096;-83
2022/12/29 05:00:41;;;;;;;13.02;9.35;;;;;;;;;;5027617;28;20071;-84
2022/12/29 05:03:08;;;;;;;9.00;5.68;;;;;;;;;;5017658;28;20056;-83
2022/12/29 05:05:39;;;;;;;8.20;5.55;;;;;;;;;;5004622;28;20053;-84
2022/12/29 05:08:06;;;;;;;10.10;6.63;;;;;;;;;;5025449;28;20057;-83
2022/12/29 05:10:34;;;;;;;9.15;6.38;;;;;;;;;;5018870;28;20045;-82
2022/12/29 05:13:07;;;;;;;12.40;6.53;;;;;;;;;;5002487;28;20049;-83
2022/12/29 05:15:35;;;;;;;12.45;6.00;;;;;;;;;;5012224;28;20045;-83
2022/12/29 05:18:04;;;;;;;11.23;6.20;;;;;;;;;;5016088;28;20508;-83
2022/12/29 05:20:31;;;;;;;9.60;6.00;;;;;;;;;;5022796;28;20053;-82
2022/12/29 05:22:59;;;;;;;7.78;5.63;;;;;;;;;;5005943;28;20261;-83
2022/12/29 05:25:26;;;;;;;11.57;7.05;;;;;;;;;;5027569;28;20053;-83
2022/12/29 05:28:09;;;;;;;9.00;5.95;;;;;;;;;;5005488;28;20053;-84
2022/12/29 05:30:43;;;;;;;14.23;6.40;;;;;;;;;;5023857;28;20065;-83
2022/12/29 05:33:11;;;;;;;9.55;5.95;;;;;;;;;;5018857;28;20040;-83
2022/12/29 05:35:42;;;;;;;11.57;6.57;;;;;;;;;;5006252;28;20488;-82
2022/12/29 05:38:10;;;;;;;9.60;5.57;;;;;;;;;;5022967;28;20045;-83
2022/12/29 05:40:38;;;;;;;7.13;5.40;;;;;;;;;;5022141;28;20156;-83
2022/12/29 05:43:14;;;;;;;8.25;5.82;;;;;;;;;;5019732;28;20056;-84
2022/12/29 05:46:02;;;;;;;9.57;5.30;;;;;;;;;;5031768;28;20133;-86
2022/12/29 05:48:48;;;;;;;8.73;6.15;;;;;;;;;;5030756;28;20057;-83
2022/12/29 05:51:36;;;;;;;8.80;5.10;;;;;;;;;;5020278;28;20081;-83
2022/12/29 05:54:06;;;;;;;7.45;5.30;;;;;;;;;;5009076;28;20041;-83
2022/12/29 05:56:34;;;;;;;6.28;4.60;;;;;;;;;;5022278;28;20499;-82
2022/12/29 05:59:09;;;;;;;8.55;5.45;;;;;;;;;;5028975;28;20122;-84
2022/12/29 06:01:44;;;;;;;7.47;5.53;;;;;;;;;;5020983;28;20042;-83
2022/12/29 06:04:24;;;;;;;8.43;5.18;;;;;;;;;;5008642;28;20401;-83
2022/12/29 06:06:57;;;;;;;8.00;5.65;;;;;;;;;;5028349;28;20111;-83
2022/12/29 06:09:40;;;;;;;7.63;5.03;;;;;;;;;;5005881;28;20041;-82
2022/12/29 06:12:27;;;;;;;6.63;5.03;;;;;;;;;;5026596;28;20135;-83
2022/12/29 06:14:55;;;;;;;8.20;6.78;;;;;;;;;;5025582;28;20136;-83
2022/12/29 06:17:30;;;;;;;8.75;6.25;;;;;;;;;;5024581;28;20238;-84
2022/12/29 06:20:02;;;;;;;5.90;4.50;;;;;;;;;;5016508;28;20054;-83
2022/12/29 06:22:35;;;;;;;8.03;5.37;;;;;;;;;;5004219;28;20491;-83
2022/12/29 06:25:05;;;;;;;6.78;5.40;;;;;;;;;;5023999;28;20503;-84
2022/12/29 06:27:42;;;;;;;9.40;5.72;;;;;;;;;;5003766;28;20446;-83
2022/12/29 06:30:10;;;;;;;7.43;5.32;;;;;;;;;;5000584;28;20518;-83
2022/12/29 06:32:39;;;;;;;5.78;4.65;;;;;;;;;;5007465;28;20053;-84
2022/12/29 06:35:12;;;;;;;10.32;6.55;;;;;;;;;;5002000;28;20042;-83
2022/12/29 06:37:49;;;;;;;6.68;5.45;;;;;;;;;;5016874;28;20044;-84
2022/12/29 06:43:51;;;;;;;6.45;5.20;;;;;;;;;;4946887;29;20420;-82
2022/12/29 06:46:25;;;;;;;5.55;4.82;;;;;;;;;;4988386;28;20038;-82
2022/12/29 06:48:58;;;;;;;5.70;5.10;;;;;;;;;;5022379;28;20055;-83
2022/12/29 06:51:34;;;;;;;7.43;5.55;;;;;;;;;;5023876;28;20041;-83
2022/12/29 06:54:02;;;;;;;7.55;5.90;;;;;;;;;;5022221;28;20042;-83
2022/12/29 06:56:44;;;;;;;7.53;5.90;;;;;;;;;;5012963;28;20076;-84
2022/12/29 06:59:18;;;;;;;9.85;5.63;;;;;;;;;;5001179;28;20042;-83
2022/12/29 07:01:48;;;;;;;6.80;5.88;;;;;;;;;;5011178;28;20287;-83
2022/12/29 07:04:23;;;;;;;6.47;5.25;;;;;;;;;;5021131;28;20093;-84
2022/12/29 07:06:57;;;;;;;6.63;5.82;;;;;;;;;;5019679;28;20047;-83
2022/12/29 07:09:35;;;;;;;6.88;6.18;;;;;;;;;;5003521;28;20483;-83
2022/12/29 07:12:14;;;;;;;8.55;6.18;;;;;;;;;;5020869;28;20046;-83
2022/12/29 07:14:44;;;;;;;8.23;6.63;;;;;;;;;;5023401;28;20041;-82
2022/12/29 07:17:14;;;;;;;8.57;6.03;;;;;;;;;;5033905;28;20128;-82
2022/12/29 07:19:49;;;;;;;7.22;6.43;;;;;;;;;;5029761;28;20050;-83
2022/12/29 07:22:17;;;;;;;7.13;6.05;;;;;;;;;;5027409;28;20056;-83
2022/12/29 07:24:46;;;;;;;8.77;6.10;;;;;;;;;;5014616;28;20061;-83
2022/12/29 07:27:14;;;;;;;7.45;6.28;;;;;;;;;;5021171;28;20591;-83
2022/12/29 07:29:44;;;;;;;9.50;7.40;;;;;;;;;;5018768;28;20064;-82
2022/12/29 07:32:18;;;;;;;9.70;7.05;;;;;;;;;;5021235;28;20045;-83
2022/12/29 07:34:52;;;;;;;8.25;6.05;;;;;;;;;;5021967;28;20034;-82
2022/12/29 07:37:31;;;;;;;8.98;6.90;;;;;;;;;;5006678;28;20052;-82
2022/12/29 07:40:03;;;;;;;7.10;6.28;;;;;;;;;;5006163;28;20049;-83
2022/12/29 07:42:41;;;;;;;8.25;7.18;;;;;;;;;;5025307;28;20129;-83
2022/12/29 07:45:09;;;;;;;8.13;6.25;;;;;;;;;;5006838;28;20589;-83
2022/12/29 07:47:49;;;;;;;9.20;6.50;;;;;;;;;;5025617;28;20525;-83
2022/12/29 07:50:27;;;;;;;9.00;6.35;;;;;;;;;;5026626;28;20044;-83
2022/12/29 07:52:57;;;;;;;8.73;6.38;;;;;;;;;;5023830;28;20092;-83
2022/12/29 07:55:30;;;;;;;11.27;6.55;;;;;;;;;;5027313;28;20057;-83
2022/12/29 07:58:03;;;;;;;8.13;6.68;;;;;;;;;;5022452;28;20045;-84
2022/12/29 08:00:31;;;;;;;8.13;6.05;;;;;;;;;;5020126;28;20041;-83
2022/12/29 08:02:58;;;;;;;8.60;6.28;;;;;;;;;;5020863;28;20124;-83
2022/12/29 08:05:30;;;;;;;7.70;6.35;;;;;;;;;;5024133;28;20175;-83
2022/12/29 08:07:57;;;;;;;10.73;8.65;;;;;;;;;;5022203;28;20648;-82
2022/12/29 08:10:25;;;;;;;8.10;7.18;;;;;;;;;;5027117;28;20037;-82
2022/12/29 08:12:54;;;;;;;9.20;7.78;;;;;;;;;;5023536;28;20081;-82
2022/12/29 08:15:22;;;;;;;11.00;8.15;;;;;;;;;;5027512;28;20037;-82
2022/12/29 08:17:58;;;;;;;8.65;6.38;;;;;;;;;;5002290;28;20053;-83
2022/12/29 08:20:25;;;;;;;10.70;8.05;;;;;;;;;;5022428;28;20132;-82
2022/12/29 08:22:53;;;;;;;11.60;7.75;;;;;;;;;;5020461;28;20052;-82
2022/12/29 08:25:23;;;;;;;9.80;7.70;;;;;;;;;;5025463;28;20041;-83
2022/12/29 08:27:54;;;;;;;13.65;8.23;;;;;;;;;;5016019;28;20046;-83
2022/12/29 08:30:23;;;;;;;11.73;8.15;;;;;;;;;;5020749;28;20046;-83
2022/12/29 08:32:51;;;;;;;15.00;13.50;;;;;;;;;;5023626;28;20053;-85
2022/12/29 08:35:18;;;;;;;8.77;7.45;;;;;;;;;;5023389;28;20058;-82
2022/12/29 08:37:46;;;;;;;12.02;8.43;;;;;;;;;;5031190;28;20061;-82
2022/12/29 08:40:13;;;;;;;10.45;8.15;;;;;;;;;;5031074;28;20522;-83
2022/12/29 08:42:41;;;;;;;11.35;8.13;;;;;;;;;;5020737;28;20046;-82
2022/12/29 08:45:09;;;;;;;10.77;7.82;;;;;;;;;;5033208;28;20073;-83
2022/12/29 08:47:36;;;;;;;10.43;7.55;;;;;;;;;;5037628;28;20054;-83
2022/12/29 08:50:04;;;;;;;9.57;8.10;;;;;;;;;;5026811;28;20054;-83
2022/12/29 08:52:31;;;;;;;9.23;7.60;;;;;;;;;;5031750;28;20029;-82
2022/12/29 08:54:58;;;;;;;11.82;7.53;;;;;;;;;;5019299;28;20054;-82
2022/12/29 08:57:26;;;;;;;12.13;8.82;;;;;;;;;;5011449;28;20057;-82
2022/12/29 09:00:23;;;;;;;8.20;6.85;;;;;;;;;;5005742;28;20068;-82
2022/12/29 09:02:51;;;;;;;12.77;7.00;;;;;;;;;;5011210;28;20083;-81
2022/12/29 09:05:19;;;;;;;12.38;7.18;;;;;;;;;;5019327;28;20054;-83
2022/12/29 09:07:46;;;;;;;11.25;7.22;;;;;;;;;;5012797;28;20500;-82
2022/12/29 09:10:13;;;;;;;12.40;11.20;;;;;;;;;;5022721;28;20058;-83
2022/12/29 09:12:41;;;;;;;10.38;7.57;;;;;;;;;;5013529;28;20124;-81
2022/12/29 09:15:08;;;;;;;9.32;7.38;;;;;;;;;;5018660;28;20076;-82
2022/12/29 09:17:45;;;;;;;10.38;6.97;;;;;;;;;;5012734;28;20054;-83
2022/12/29 09:20:13;;;;;;;8.80;6.60;;;;;;;;;;5011972;28;20054;-83
2022/12/29 09:22:40;;;;;;;9.85;6.97;;;;;;;;;;5021779;28;20058;-83
2022/12/29 09:25:09;;;;;;;10.13;6.75;;;;;;;;;;5025513;28;20054;-82
2022/12/29 09:27:36;;;;;;;9.73;6.93;;;;;;;;;;5011708;28;20125;-82
2022/12/29 09:30:06;;;;;;;10.15;8.38;;;;;;;;;;5020201;28;20057;-82
2022/12/29 09:32:33;;;;;;;10.60;8.38;;;;;;;;;;5024930;28;20046;-82
2022/12/29 09:35:06;;;;;;;17.67;11.63;;;;;;;;;;5024856;28;20049;-83
2022/12/29 09:37:34;;;;;;;11.48;7.28;;;;;;;;;;5014579;28;20054;-82
2022/12/29 09:40:01;;;;;;;7.45;6.28;;;;;;;;;;5014189;28;20498;-81
2022/12/29 09:42:34;;;;;;;7.78;6.70;;;;;;;;;;5013326;28;20495;-82
2022/12/29 09:45:08;;;;;;;8.27;6.07;;;;;;;;;;5014055;28;20155;-82
2022/12/29 09:47:41;;;;;;;6.63;5.80;;;;;;;;;;5013496;28;20045;-82
2022/12/29 09:50:28;;;;;;;7.32;6.50;;;;;;;;;;5024734;28;20099;-82
2022/12/29 09:52:59;;;;;;;7.70;6.20;;;;;;;;;;5023834;28;20430;-81
2022/12/29 09:55:32;;;;;;;8.67;6.67;;;;;;;;;;5020126;28;20046;-82
2022/12/29 09:58:02;;;;;;;10.27;6.00;;;;;;;;;;5022004;28;20092;-82
2022/12/29 10:00:50;;;;;;;8.48;6.85;;;;;;;;;;5012548;28;20365;-81
2022/12/29 10:03:23;;;;;;;10.07;6.50;;;;;;;;;;5047676;22;20052;-84
2022/12/29 10:05:53;;;;;;;8.77;6.50;;;;;;;;;;5024066;28;20049;-85
2022/12/29 10:08:28;;;;;;;8.77;6.78;;;;;;;;;;5024200;28;20103;-85
2022/12/29 10:10:59;;;;;;;11.30;8.10;;;;;;;;;;5027772;28;20052;-84
2022/12/29 10:13:58;;;;;;;7.13;6.32;;;;;;;;;;5033420;28;20850;-84
2022/12/29 10:16:41;;;;;;;7.72;6.43;;;;;;;;;;5051793;28;20075;-85
2022/12/29 10:19:12;;;;;;;11.10;10.07;;;;;;;;;;5033915;28;20041;-85
2022/12/29 10:21:46;;;;;;;5.88;5.35;;;;;;;;;;5051500;28;20048;-86
2022/12/29 10:24:17;;;;;;;8.35;6.65;;;;;;;;;;5017485;28;20472;-86
2022/12/29 10:26:47;;;;;;;12.23;7.35;;;;;;;;;;5045629;28;20528;-85
2022/12/29 10:29:22;;;;;;;8.38;7.47;;;;;;;;;;5040770;28;20061;-85
2022/12/29 10:31:55;;;;;;;8.65;6.82;;;;;;;;;;5051402;28;20049;-86
2022/12/29 10:34:39;;;;;;;7.63;6.32;;;;;;;;;;5033819;28;20076;-85
2022/12/29 10:37:13;;;;;;;8.07;6.25;;;;;;;;;;5033268;28;20053;-84
2022/12/29 10:39:50;;;;;;;6.57;5.97;;;;;;;;;;5031432;28;20047;-86
2022/12/29 10:42:50;;;;;;;7.82;6.93;;;;;;;;;;5031033;28;20045;-85
2022/12/29 10:45:19;;;;;;;8.25;7.35;;;;;;;;;;4986521;28;20476;-85
2022/12/29 10:48:03;;;;;;;7.07;5.82;;;;;;;;;;5012834;28;20419;-85
2022/12/29 10:50:31;;;;;;;6.50;5.68;;;;;;;;;;5012834;28;20438;-89
2022/12/29 10:53:03;;;;;;;8.50;6.75;;;;;;;;;;5057073;28;20097;-85
2022/12/29 10:55:36;;;;;;;8.95;7.15;;;;;;;;;;5050487;28;20548;-85
2022/12/29 10:58:05;;;;;;;8.63;6.03;;;;;;;;;;5050545;28;20121;-85
2022/12/29 11:00:33;;;;;;;6.10;5.50;;;;;;;;;;5032205;28;20491;-87
2022/12/29 11:03:19;;;;;;;10.63;6.82;;;;;;;;;;5032612;28;20380;-85
2022/12/29 11:05:52;;;;;;;10.93;6.67;;;;;;;;;;5032243;28;20114;-85
2022/12/29 11:08:23;;;;;;;8.32;6.20;;;;;;;;;;5041616;28;20060;-84
2022/12/29 11:11:01;;;;;;;7.32;6.60;;;;;;;;;;5050785;28;20392;-86
2022/12/29 11:13:32;;;;;;;8.73;5.97;;;;;;;;;;5050771;28;20499;-84
2022/12/29 11:16:06;;;;;;;8.25;5.88;;;;;;;;;;5033326;28;20041;-85
2022/12/29 11:18:36;;;;;;;9.02;6.57;;;;;;;;;;5039904;28;20033;-85
2022/12/29 11:21:06;;;;;;;7.68;6.63;;;;;;;;;;5049225;28;20080;-85
2022/12/29 11:23:36;;;;;;;9.15;6.90;;;;;;;;;;5070895;28;20071;-86
2022/12/29 11:26:10;;;;;;;6.28;5.65;;;;;;;;;;5068236;28;20057;-87
2022/12/29 11:28:39;;;;;;;7.55;5.60;;;;;;;;;;5063207;28;20076;-85
2022/12/29 11:31:16;;;;;;;9.43;6.68;;;;;;;;;;5064322;28;20065;-85
2022/12/29 11:33:43;;;;;;;6.50;5.15;;;;;;;;;;5060732;28;20049;-85
2022/12/29 11:36:10;;;;;;;10.75;7.95;;;;;;;;;;5063824;28;20051;-86
2022/12/29 11:38:43;;;;;;;7.95;6.07;;;;;;;;;;5066323;28;20087;-85
2022/12/29 11:41:10;;;;;;;;;;;;;;;;;;5057765;28;20049;-86
2022/12/29 11:43:38;;;;;;;6.20;5.32;;;;;;;;;;5051199;28;20006;-84
2022/12/29 11:46:15;;;;;;;5.95;5.18;;;;;;;;;;5048458;28;20038;-87
2022/12/29 11:48:44;;;;;;;7.07;5.53;;;;;;;;;;5062220;28;20417;-85
2022/12/29 11:51:22;;;;;;;5.82;4.70;;;;;;;;;;5053385;28;20049;-85
2022/12/29 11:53:53;;;;;;;10.27;6.85;;;;;;;;;;5052653;28;20049;-85
2022/12/29 11:56:30;;;;;;;10.18;6.78;;;;;;;;;;5044168;28;20088;-85
2022/12/29 11:59:25;;;;;;;10.73;7.75;;;;;;;;;;5051741;28;20071;-85
2022/12/29 12:01:53;;;;;;;11.25;7.65;;;;;;;;;;5053534;28;20045;-85
2022/12/29 12:04:23;;;;;;;14.77;8.38;;;;;;;;;;5042390;28;20055;-86
2022/12/29 12:07:02;;;;;;;9.80;7.75;;;;;;;;;;5047307;28;20050;-86
2022/12/29 12:09:33;;;;;;;8.90;6.55;;;;;;;;;;5033394;28;20057;-85
2022/12/29 12:12:01;;;;;;;7.93;6.03;;;;;;;;;;5049979;28;20555;-85
2022/12/29 12:14:32;;;;;;;7.50;5.80;;;;;;;;;;5042970;28;20052;-85
2022/12/29 12:17:27;;;;;;;7.43;5.63;;;;;;;;;;5042646;28;20049;-84
2022/12/29 12:19:59;;;;;;;6.28;5.32;;;;;;;;;;5054334;28;20049;-85
2022/12/29 12:22:26;;;;;;;;;;;;;;;;;;5054684;28;20093;-85
2022/12/29 12:25:00;;;;;;;12.98;8.48;;;;;;;;;;5052401;28;19925;-85
2022/12/29 12:27:30;;;;;;;10.00;8.13;;;;;;;;;;5036047;28;20060;-85
2022/12/29 12:30:03;;;;;;;11.18;8.75;;;;;;;;;;5046404;28;20629;-85
2022/12/29 12:32:45;;;;;;;10.90;9.47;;;;;;;;;;5043100;28;20057;-85
2022/12/29 12:35:16;;;;;;;14.25;9.70;;;;;;;;;;5045693;28;20514;-87
2022/12/29 12:38:07;;;;;;;10.68;7.50;;;;;;;;;;5033804;28;20049;-85
2022/12/29 12:40:48;;;;;;;7.15;5.63;;;;;;;;;;5047148;28;20422;-86
2022/12/29 12:43:35;;;;;;;7.63;6.72;;;;;;;;;;5058741;28;20052;-85
2022/12/29 12:46:18;;;;;;;7.20;5.35;;;;;;;;;;5044655;28;20132;-85
2022/12/29 12:48:56;;;;;;;8.45;6.43;;;;;;;;;;5048380;28;20052;-85
2022/12/29 12:51:33;;;;;;;16.35;8.85;;;;;;;;;;5060559;28;20142;-85
2022/12/29 12:54:17;;;;;;;12.15;8.60;;;;;;;;;;5050468;28;20041;-87
2022/12/29 12:56:50;;;;;;;12.65;7.70;;;;;;;;;;5053529;28;20049;-85
2022/12/29 12:59:24;;;;;;;7.40;5.68;;;;;;;;;;5035201;28;20062;-86
2022/12/29 13:02:10;;;;;;;10.48;6.25;;;;;;;;;;5031889;28;20076;-86
2022/12/29 13:04:44;;;;;;;7.55;5.65;;;;;;;;;;5047339;28;20522;-84
2022/12/29 13:07:21;;;;;;;6.70;5.65;;;;;;;;;;5034340;28;20124;-85
2022/12/29 13:09:54;;;;;;;8.52;7.25;;;;;;;;;;5032789;28;20064;-85
2022/12/29 13:12:25;;;;;;;6.93;5.53;;;;;;;;;;5014938;28;20046;-84
2022/12/29 13:14:58;;;;;;;8.23;6.20;;;;;;;;;;5032150;28;20046;-87
2022/12/29 13:17:36;;;;;;;11.10;8.15;;;;;;;;;;5033733;28;20042;-85
2022/12/29 13:20:21;;;;;;;7.32;6.00;;;;;;;;;;5062260;28;20045;-85
2022/12/29 13:22:58;;;;;;;9.23;7.38;;;;;;;;;;5020602;28;20052;-85
2022/12/29 13:25:25;;;;;;;11.00;7.60;;;;;;;;;;5049264;28;20131;-84
2022/12/29 13:28:16;;;;;;;9.15;6.57;;;;;;;;;;5041132;28;20053;-85
2022/12/29 13:31:03;;;;;;;11.90;7.28;;;;;;;;;;5048609;28;20079;-85
2022/12/29 13:33:38;;;;;;;10.30;7.28;;;;;;;;;;5027782;28;20067;-85
2022/12/29 13:36:10;;;;;;;9.32;6.63;;;;;;;;;;5039230;28;20061;-85
2022/12/29 13:38:45;;;;;;;7.20;6.32;;;;;;;;;;5044924;28;20049;-85
2022/12/29 13:41:19;;;;;;;8.15;6.00;;;;;;;;;;5045997;28;20401;-84
2022/12/29 13:43:50;;;;;;;8.65;6.35;;;;;;;;;;5037964;28;20041;-84
2022/12/29 13:46:27;;;;;;;7.82;5.82;;;;;;;;;;5035019;28;20045;-85
2022/12/29 13:49:16;;;;;;;10.00;6.53;;;;;;;;;;5031099;28;20053;-85
2022/12/29 13:51:54;;;;;;;6.80;5.38;;;;;;;;;;5027599;28;20037;-87
2022/12/29 13:54:29;;;;;;;6.57;5.63;;;;;;;;;;5033845;28;20052;-84
2022/12/29 13:57:15;;;;;;;7.28;5.75;;;;;;;;;;5018239;28;20098;-83
2022/12/29 13:59:46;;;;;;;7.10;5.72;;;;;;;;;;5044049;28;20568;-84
2022/12/29 14:02:18;;;;;;;10.27;6.47;;;;;;;;;;5049533;28;20498;-85
2022/12/29 14:04:56;;;;;;;8.95;6.75;;;;;;;;;;5036984;28;20048;-84
2022/12/29 14:07:40;;;;;;;8.93;6.82;;;;;;;;;;5031665;28;20465;-86
2022/12/29 14:10:29;;;;;;;13.35;7.55;;;;;;;;;;5031833;28;20135;-85
2022/12/29 14:13:15;;;;;;;8.83;7.23;;;;;;;;;;5042723;28;20041;-85
2022/12/29 14:15:46;;;;;;;9.82;7.18;;;;;;;;;;5030707;28;20061;-85
2022/12/29 14:18:24;;;;;;;11.43;7.40;;;;;;;;;;5033245;28;20052;-84
2022/12/29 14:21:00;;;;;;;15.13;8.63;;;;;;;;;;5026255;28;20053;-86
2022/12/29 14:23:41;;;;;;;18.13;8.73;;;;;;;;;;5050468;28;20049;-84
2022/12/29 14:26:38;;;;;;;16.02;7.50;;;;;;;;;;5050812;28;20044;-87
2022/12/29 14:29:17;;;;;;;16.77;9.25;;;;;;;;;;5034157;28;20049;-85
2022/12/29 14:31:44;;;;;;;11.57;8.63;;;;;;;;;;5050354;28;20133;-86
2022/12/29 14:34:21;;;;;;;17.35;9.60;;;;;;;;;;5050483;28;20045;-85
2022/12/29 14:36:56;;;;;;;15.15;9.30;;;;;;;;;;5049997;28;20499;-87
2022/12/29 14:39:29;;;;;;;13.20;8.10;;;;;;;;;;5050964;28;20051;-85
2022/12/29 14:42:00;;;;;;;11.18;7.63;;;;;;;;;;5051319;28;20052;-85
2022/12/29 14:44:31;;;;;;;14.95;7.88;;;;;;;;;;5051525;28;20048;-86
2022/12/29 14:47:06;;;;;;;8.40;5.85;;;;;;;;;;5051327;28;20103;-85
2022/12/29 14:49:40;;;;;;;10.15;5.93;;;;;;;;;;5052188;28;20064;-85
2022/12/29 14:52:15;;;;;;;10.43;7.10;;;;;;;;;;5034466;28;20079;-85
2022/12/29 14:54:44;;;;;;;9.55;7.30;;;;;;;;;;5051437;28;20407;-86
2022/12/29 14:57:34;;;;;;;10.70;7.53;;;;;;;;;;5034432;28;20056;-85
2022/12/29 15:00:06;;;;;;;14.75;9.50;;;;;;;;;;5034140;28;20072;-86
2022/12/29 15:02:38;;;;;;;14.38;8.75;;;;;;;;;;5033509;28;20053;-85
2022/12/29 15:05:05;;;;;;;;;;;;;;;;;;5050988;28;20075;-86
2022/12/29 15:07:36;;;;;;;12.95;8.75;;;;;;;;;;5050727;28;19920;-86
2022/12/29 15:10:06;;;;;;;16.35;11.82;;;;;;;;;;5051413;28;20399;-85
2022/12/29 15:12:37;;;;;;;28.23;16.63;;;;;;;;;;5051998;28;20102;-86
2022/12/29 15:15:31;;;;;;;23.02;14.20;;;;;;;;;;5037132;28;20053;-86
2022/12/29 15:18:12;;;;;;;26.23;13.55;;;;;;;;;;5018256;28;20049;-86
2022/12/29 15:20:39;;;;;;;39.22;15.02;;;;;;;;;;5055859;28;20056;-86
2022/12/29 15:23:11;;;;;;;62.70;24.52;;;;;;;;;;5054179;28;20111;-87
2022/12/29 15:25:56;;;;;;;60.60;22.10;;;;;;;;;;5054225;28;20119;-86
2022/12/29 15:28:23;;;;;;;53.45;22.65;;;;;;;;;;5054859;28;20087;-86
2022/12/29 15:30:55;;;;;;;54.00;24.50;;;;;;;;;;5054489;28;20049;-86
2022/12/29 15:33:24;;;;;;;34.40;19.95;;;;;;;;;;5054057;28;20053;-86
2022/12/29 15:35:52;;;;;;;34.03;20.27;;;;;;;;;;5037324;28;20067;-86
2022/12/29 15:38:22;;;;;;;20.92;13.93;;;;;;;;;;5055268;28;20057;-86
2022/12/29 15:41:01;;;;;;;15.32;10.15;;;;;;;;;;5055079;28;20071;-86
2022/12/29 15:43:31;;;;;;;13.40;9.93;;;;;;;;;;5054167;28;20133;-86
2022/12/29 15:46:01;;;;;;;11.10;8.43;;;;;;;;;;5037544;28;20053;-86
2022/12/29 15:48:28;;;;;;;7.55;6.75;;;;;;;;;;5055031;28;20055;-86
2022/12/29 15:50:56;;;;;;;7.28;6.28;;;;;;;;;;5055399;28;20048;-85